Estación meteorológica de Montseny - Vallcàrquera (Vallès Oriental, Parc Natural del Montseny)

Consulta los datos en tiempo real de la estación meteorológica de Montseny - Vallcàrquera





Hora UTC 02:05
Temperatura 18.1 ºC
Humedad 90.2 %
Pluja 0.0 mm
Velocidad viento 1.2 km/h
Dirección viento NE
Radiación solar 0.0 W/m²

Datos diarios 2026-09-02



Hora UTC (invierno +1h; verano +2h)
Temperatura (ºC) Humedad (%) Velocidad viento (km/h) Precipitación (mm) Radiación solar (W/m²)
Hora UTC Aire Humedad Vel. Dir. Vel. Max Dir. Intent. máx 5 min. Rad. Sol.
00:05 18.8 86.0 3.5 ENE 3.5 ENE 0.0 0.0
00:10 18.9 85.8 1.9 NE 4.2 ENE 0.0 0.0
00:15 18.9 86.0 2.6 NE 4.6 E 0.0 0.0
00:20 19.0 85.5 2.8 NE 5.3 NE 0.0 0.0
00:25 19.1 85.2 2.3 NE 3.9 ENE 0.0 0.0
00:30 19.0 85.6 1.5 NE 3.2 N 0.0 0.0
00:35 18.9 86.0 1.2 N 3.2 N 0.0 0.0
00:40 18.8 87.1 1.2 ENE 2.5 ENE 0.0 0.0
00:45 18.8 87.4 2.4 ENE 4.2 NE 0.0 0.0
00:50 18.9 86.6 2.0 NE 3.5 NNE 0.0 0.0
00:55 18.9 87.0 1.7 N 3.5 NNE 0.0 0.0
01:00 18.8 87.7 0.2 N 1.8 N 0.0 0.0
01:05 18.7 88.2 1.3 NNE 2.5 NE 0.0 0.0
01:10 18.8 87.9 1.2 NNE 2.1 NE 0.0 0.0
01:15 18.6 88.3 0.8 NE 2.5 ENE 0.0 0.0
01:20 18.6 89.3 0.7 NNE 2.5 NNE 0.0 0.0
01:25 18.6 88.8 0.9 N 2.1 N 0.0 0.0
01:30 18.7 89.2 0.9 N 2.5 N 0.0 0.0
01:35 18.6 89.3 0.5 N 1.8 NNW 0.0 0.0
01:40 18.6 89.4 1.0 NNW 2.1 NNW 0.0 0.0
01:45 18.6 89.4 1.0 NNW 2.1 N 0.0 0.0
01:50 18.5 89.5 0.4 NNW 2.1 NNW 0.0 0.0
01:55 18.3 90.1 0.8 N 2.5 N 0.0 0.0
02:00 18.3 90.6 1.1 NNW 2.5 N 0.0 0.0
02:05 18.1 90.2 1.2 NE 2.5 ENE 0.0 0.0
Máxima 19.1 90.6 3.5 ENE 5.3 NE 0.0 0.0
Mínima 18.1 85.2
Total 0.0